createdAt,value
2019-03-19T00:00:16.814Z,101403.75
2019-03-19T00:02:45.299Z,101403.81
2019-03-19T00:05:13.911Z,101400.44
2019-03-19T00:07:42.416Z,101400.11
2019-03-19T00:10:10.872Z,101396.67
2019-03-19T00:12:39.379Z,101393.23
2019-03-19T00:15:10.151Z,101388.45
2019-03-19T00:17:38.667Z,101382.39
2019-03-19T00:20:15.161Z,101380.25
2019-03-19T00:22:43.695Z,101385.56
2019-03-19T00:25:12.220Z,101393.92
2019-03-19T00:27:40.654Z,101392.66
2019-03-19T00:30:16.328Z,101399.73
2019-03-19T00:32:44.863Z,101393.66
2019-03-19T00:35:13.767Z,101394.60
2019-03-19T00:37:42.446Z,101396.43
2019-03-19T00:40:12.712Z,101396.92
2019-03-19T00:42:41.152Z,101401.36
2019-03-19T00:45:11.742Z,101397.41
2019-03-19T00:47:40.253Z,101408.78
2019-03-19T00:50:11.104Z,101408.78
2019-03-19T00:52:39.631Z,101410.15
2019-03-19T00:55:09.237Z,101402.74
2019-03-19T00:57:37.673Z,101401.05
2019-03-19T01:00:12.163Z,101391.42
2019-03-19T01:02:40.622Z,101395.86
2019-03-19T01:05:09.903Z,101395.86
2019-03-19T01:07:38.444Z,101412.09
2019-03-19T01:10:11.803Z,101414.28
2019-03-19T01:12:40.273Z,101416.92
2019-03-19T01:15:16.397Z,101423.10
2019-03-19T01:17:44.840Z,101429.25
2019-03-19T01:20:16.888Z,101424.86
2019-03-19T01:22:45.457Z,101419.22
2019-03-19T01:25:13.989Z,101414.84
2019-03-19T01:27:42.521Z,101423.16
2019-03-19T01:30:18.524Z,101420.10
2019-03-19T01:32:46.965Z,101426.23
2019-03-19T01:35:15.412Z,101427.11
2019-03-19T01:37:43.883Z,101429.30
2019-03-19T01:40:13.198Z,101431.52
2019-03-19T01:42:41.859Z,101430.25
2019-03-19T01:45:11.428Z,101433.38
2019-03-19T01:47:39.896Z,101436.50
2019-03-19T01:50:10.900Z,101445.34
2019-03-19T01:52:39.351Z,101438.38
2019-03-19T01:55:10.484Z,101437.99
2019-03-19T01:57:38.952Z,101437.13
2019-03-19T02:00:13.084Z,101439.80
2019-03-19T02:02:41.624Z,101432.88
2019-03-19T02:05:10.204Z,101432.51
2019-03-19T02:07:38.735Z,101438.26
2019-03-19T02:10:14.090Z,101445.70
2019-03-19T02:12:42.816Z,101456.23
2019-03-19T02:15:13.805Z,101459.75
2019-03-19T02:17:42.337Z,101461.98
2019-03-19T02:20:13.201Z,101461.56
2019-03-19T02:22:41.696Z,101457.22
2019-03-19T02:25:11.177Z,101462.54
2019-03-19T02:27:39.707Z,101473.55
2019-03-19T02:30:13.408Z,101474.47
2019-03-19T02:32:41.880Z,101477.55
2019-03-19T02:35:11.179Z,101471.02
2019-03-19T02:37:39.625Z,101473.20
2019-03-19T02:40:15.303Z,101469.75
2019-03-19T02:42:43.818Z,101478.08
2019-03-19T02:45:14.384Z,101482.95
2019-03-19T02:47:43.005Z,101487.78
2019-03-19T02:50:15.488Z,101493.95
2019-03-19T02:52:43.929Z,101503.16
2019-03-19T02:55:12.532Z,101505.78
2019-03-19T02:57:41.057Z,101505.35
2019-03-19T03:00:14.424Z,101510.61
2019-03-19T03:02:42.889Z,101514.98
2019-03-19T03:05:16.605Z,101514.98
2019-03-19T03:07:45.195Z,101518.02
2019-03-19T03:10:14.330Z,101518.02
2019-03-19T03:12:42.818Z,101510.96
2019-03-19T03:15:12.735Z,101510.52
2019-03-19T03:17:41.239Z,101510.52
2019-03-19T03:20:11.541Z,101521.47
2019-03-19T03:22:40.185Z,101522.80
2019-03-19T03:25:12.937Z,101525.42
2019-03-19T03:27:41.380Z,101526.34
2019-03-19T03:30:14.987Z,101525.50
2019-03-19T03:32:42.771Z,101516.30
2019-03-19T03:35:11.796Z,101517.19
2019-03-19T03:37:40.441Z,101518.55
2019-03-19T03:40:12.024Z,101528.63
2019-03-19T03:42:43.023Z,101526.48
2019-03-19T03:45:15.181Z,101516.84
2019-03-19T03:47:43.753Z,101517.28
2019-03-19T03:50:14.677Z,101526.48
2019-03-19T03:52:43.183Z,101529.59
2019-03-19T03:55:15.451Z,101531.39
2019-03-19T03:57:43.959Z,101526.19
2019-03-19T04:00:25.119Z,101536.23
2019-03-19T04:02:53.641Z,101530.12
2019-03-19T04:05:22.155Z,101534.95
2019-03-19T04:07:50.730Z,101543.31
2019-03-19T04:10:19.892Z,101543.76
2019-03-19T04:12:48.572Z,101542.89
2019-03-19T04:15:17.961Z,101538.51
2019-03-19T04:17:46.567Z,101537.27
2019-03-19T04:20:17.275Z,101541.27
2019-03-19T04:22:45.849Z,101550.02
2019-03-19T04:25:14.589Z,101551.83
2019-03-19T04:27:43.320Z,101568.06
2019-03-19T04:30:14.002Z,101561.90
2019-03-19T04:32:42.528Z,101565.44
2019-03-19T04:35:11.095Z,101565.01
2019-03-19T04:37:39.698Z,101564.13
2019-03-19T04:40:10.571Z,101576.00
2019-03-19T04:42:39.010Z,101576.88
2019-03-19T04:45:09.978Z,101585.64
2019-03-19T04:47:38.446Z,101590.02
2019-03-19T04:50:12.013Z,101583.92
2019-03-19T04:52:40.572Z,101588.30
2019-03-19T04:55:13.245Z,101587.87
2019-03-19T04:57:41.686Z,101591.84
2019-03-19T05:00:18.270Z,101596.67
2019-03-19T05:02:46.812Z,101595.35
2019-03-19T05:05:15.442Z,101591.84
2019-03-19T05:07:43.944Z,101596.63
2019-03-19T05:10:13.936Z,101588.74
2019-03-19T05:12:42.477Z,101596.63
2019-03-19T05:15:11.568Z,101593.56
2019-03-19T05:17:39.999Z,101595.35
2019-03-19T05:20:18.363Z,101601.45
2019-03-19T05:22:46.821Z,101594.03
2019-03-19T05:25:15.332Z,101593.60
2019-03-19T05:27:43.794Z,101597.11
2019-03-19T05:30:19.307Z,101595.36
2019-03-19T05:32:47.749Z,101599.77
2019-03-19T05:35:16.207Z,101604.15
2019-03-19T05:37:44.631Z,101608.09
2019-03-19T05:40:16.885Z,101616.41
2019-03-19T05:42:45.373Z,101616.41
2019-03-19T05:45:14.800Z,101620.80
2019-03-19T05:47:43.419Z,101626.48
2019-03-19T05:50:17.054Z,101628.64
2019-03-19T05:52:48.173Z,101636.48
2019-03-19T05:55:15.676Z,101642.58
2019-03-19T05:57:49.629Z,101641.66
2019-03-19T06:00:20.344Z,101633.66
2019-03-19T06:02:48.982Z,101638.84
2019-03-19T06:05:17.471Z,101630.86
2019-03-19T06:07:45.918Z,101638.23
2019-03-19T06:10:14.970Z,101639.02
2019-03-19T06:12:43.515Z,101646.39
2019-03-19T06:15:15.647Z,101648.02
2019-03-19T06:17:44.156Z,101649.23
2019-03-19T06:20:14.063Z,101645.20
2019-03-19T06:22:42.623Z,101652.52
2019-03-19T06:25:12.008Z,101649.34
2019-03-19T06:27:40.508Z,101654.03
2019-03-19T06:30:20.067Z,101653.45
2019-03-19T06:32:48.628Z,101662.08
2019-03-19T06:35:17.212Z,101667.20
2019-03-19T06:37:45.661Z,101668.81
2019-03-19T06:40:18.228Z,101672.98
2019-03-19T06:42:46.730Z,101676.30
2019-03-19T06:45:16.326Z,101676.54
2019-03-19T06:47:44.917Z,101676.81
2019-03-19T06:50:15.857Z,101688.48
2019-03-19T06:52:44.532Z,101696.90
2019-03-19T06:55:17.163Z,101693.56
2019-03-19T06:57:45.617Z,101695.83
2019-03-19T07:00:16.768Z,101695.58
2019-03-19T07:02:45.450Z,101708.27
2019-03-19T07:05:15.023Z,101701.58
2019-03-19T07:07:43.466Z,101699.36
2019-03-19T07:10:14.094Z,101707.23
2019-03-19T07:12:42.595Z,101700.12
2019-03-19T07:15:15.778Z,101702.20
2019-03-19T07:17:44.288Z,101703.39
2019-03-19T07:20:14.977Z,101697.01
2019-03-19T07:22:43.507Z,101697.77
2019-03-19T07:25:12.006Z,101700.16
2019-03-19T07:27:40.546Z,101699.95
2019-03-19T07:30:14.545Z,101699.12
2019-03-19T07:32:43.311Z,101699.12
2019-03-19T07:35:11.883Z,101697.94
2019-03-19T07:37:40.425Z,101700.01
2019-03-19T07:40:11.955Z,101700.80
2019-03-19T07:42:40.433Z,101709.83
2019-03-19T07:45:14.595Z,101711.64
2019-03-19T07:47:43.211Z,101711.95
2019-03-19T07:50:14.536Z,101703.79
2019-03-19T07:52:43.011Z,101712.53
2019-03-19T07:55:11.689Z,101710.38
2019-03-19T07:57:40.279Z,101713.97
2019-03-19T08:00:11.932Z,101716.25
2019-03-19T08:02:40.437Z,101724.81
2019-03-19T08:05:10.342Z,101731.73
2019-03-19T08:07:38.879Z,101731.48
2019-03-19T08:10:10.408Z,101732.61
2019-03-19T08:12:38.992Z,101726.67
2019-03-19T08:15:12.575Z,101727.07
2019-03-19T08:17:42.908Z,101737.55
2019-03-19T08:20:15.027Z,101742.58
2019-03-19T08:22:43.723Z,101746.86
2019-03-19T08:25:13.200Z,101749.05
2019-03-19T08:27:41.799Z,101747.80
2019-03-19T08:30:24.916Z,101748.07
2019-03-19T08:32:53.820Z,101742.67
2019-03-19T08:35:22.414Z,101762.93
2019-03-19T08:37:50.991Z,101770.69
2019-03-19T08:40:20.492Z,101768.70
2019-03-19T08:42:49.091Z,101763.89
2019-03-19T08:45:22.686Z,101761.68
2019-03-19T08:47:51.360Z,101761.77
2019-03-19T08:50:21.459Z,101768.73
2019-03-19T08:52:50.065Z,101771.30
2019-03-19T08:55:18.812Z,101775.34
2019-03-19T08:57:47.579Z,101772.50
2019-03-19T09:00:20.906Z,101763.02
2019-03-19T09:02:49.587Z,101770.43
2019-03-19T09:05:18.149Z,101771.73
2019-03-19T09:07:46.752Z,101774.59
2019-03-19T09:10:21.579Z,101773.14
2019-03-19T09:12:50.189Z,101771.80
2019-03-19T09:15:20.290Z,101777.20
2019-03-19T09:17:48.871Z,101776.19
2019-03-19T09:20:18.223Z,101780.48
2019-03-19T09:22:46.797Z,101781.48
2019-03-19T09:25:15.427Z,101777.42
2019-03-19T09:27:44.031Z,101778.23
2019-03-19T09:30:19.992Z,101782.42
2019-03-19T09:32:48.620Z,101780.21
2019-03-19T09:35:17.225Z,101779.48
2019-03-19T09:37:57.292Z,101781.20
2019-03-19T09:40:20.646Z,101789.66
2019-03-19T09:42:49.352Z,101789.86
2019-03-19T09:45:18.523Z,101789.86
2019-03-19T09:47:47.622Z,101788.05
2019-03-19T09:50:20.063Z,101789.05
2019-03-19T09:52:48.775Z,101787.11
2019-03-19T09:55:17.476Z,101788.83
2019-03-19T09:57:46.300Z,101795.45
2019-03-19T10:00:23.061Z,101794.19
2019-03-19T10:02:51.720Z,101794.74
2019-03-19T10:05:20.401Z,101797.72
2019-03-19T10:07:49.012Z,101798.37
2019-03-19T10:10:24.611Z,101787.06
2019-03-19T10:12:53.205Z,101785.00
2019-03-19T10:15:21.905Z,101782.41
2019-03-19T10:17:50.460Z,101785.81
2019-03-19T10:20:20.409Z,101800.99
2019-03-19T10:22:49.076Z,101796.52
2019-03-19T10:25:17.879Z,101790.20
2019-03-19T10:27:46.488Z,101791.08
2019-03-19T10:30:20.817Z,101781.89
2019-03-19T10:32:49.493Z,101778.12
2019-03-19T10:35:18.369Z,101790.47
2019-03-19T10:37:47.073Z,101792.84
2019-03-19T10:40:19.773Z,101791.78
2019-03-19T10:42:48.410Z,101788.34
2019-03-19T10:45:24.627Z,101792.87
2019-03-19T10:47:53.509Z,101797.45
2019-03-19T10:50:26.170Z,101797.13
2019-03-19T10:52:54.826Z,101795.52
2019-03-19T10:55:23.406Z,101798.62
2019-03-19T10:57:52.062Z,101809.50
2019-03-19T11:00:22.387Z,101798.97
2019-03-19T11:02:51.381Z,101802.84
2019-03-19T11:05:21.066Z,101811.82
2019-03-19T11:07:49.943Z,101815.85
2019-03-19T11:10:19.244Z,101809.96
2019-03-19T11:12:48.013Z,101813.99
2019-03-19T11:15:27.096Z,101812.91
2019-03-19T11:17:55.676Z,101811.45
2019-03-19T11:20:24.421Z,101812.87
2019-03-19T11:22:53.199Z,101812.36
2019-03-19T11:25:23.621Z,101821.44
2019-03-19T11:27:52.321Z,101820.25
2019-03-19T11:30:29.510Z,101813.91
2019-03-19T11:32:58.464Z,101812.60
2019-03-19T11:35:27.250Z,101818.80
2019-03-19T11:37:55.914Z,101824.22
2019-03-19T11:40:26.007Z,101825.37
2019-03-19T11:42:55.022Z,101819.38
2019-03-19T11:45:26.639Z,101810.34
2019-03-19T11:47:55.278Z,101815.02
2019-03-19T11:50:33.243Z,101808.50
2019-03-19T11:53:01.226Z,101810.34
2019-03-19T11:55:29.874Z,101803.82
2019-03-19T11:57:58.611Z,101802.09
2019-03-19T12:00:32.761Z,101801.85
2019-03-19T12:03:12.357Z,101798.67
2019-03-19T12:05:31.677Z,101796.20
2019-03-19T12:08:00.255Z,101795.33
2019-03-19T12:10:28.890Z,101793.00
2019-03-19T12:12:57.502Z,101789.92
2019-03-19T12:15:26.065Z,101790.23
2019-03-19T12:17:54.667Z,101794.20
2019-03-19T12:20:23.269Z,101798.05
2019-03-19T12:22:51.885Z,101795.56
2019-03-19T12:25:20.502Z,101794.11
2019-03-19T12:27:49.132Z,101796.33
2019-03-19T12:30:25.957Z,101796.45
2019-03-19T12:32:52.950Z,101800.64
2019-03-19T12:35:21.811Z,101791.67
2019-03-19T12:37:50.455Z,101796.05
2019-03-19T12:40:20.170Z,101798.34
2019-03-19T12:42:48.884Z,101793.86
2019-03-19T12:45:18.463Z,101793.20
2019-03-19T12:47:47.100Z,101791.98
2019-03-19T12:50:22.883Z,101783.68
2019-03-19T12:52:51.488Z,101793.38
2019-03-19T12:55:20.073Z,101795.30
2019-03-19T12:57:48.743Z,101784.77
2019-03-19T13:00:32.866Z,101794.84
2019-03-19T13:02:52.040Z,101787.80
2019-03-19T13:05:22.527Z,101788.42
2019-03-19T13:07:50.943Z,101794.70
2019-03-19T13:10:21.019Z,101792.48
2019-03-19T13:12:49.619Z,101787.47
2019-03-19T13:15:19.561Z,101786.22
2019-03-19T13:17:48.578Z,101788.66
2019-03-19T13:20:24.149Z,101796.89
2019-03-19T13:22:52.723Z,101787.79
2019-03-19T13:25:27.757Z,101785.61
2019-03-19T13:27:56.337Z,101786.23
2019-03-19T13:30:27.821Z,101786.15
2019-03-19T13:32:56.406Z,101791.20
2019-03-19T13:35:25.105Z,101789.97
2019-03-19T13:37:53.684Z,101793.97
2019-03-19T13:40:22.487Z,101790.67
2019-03-19T13:42:51.142Z,101786.75
2019-03-19T13:45:23.565Z,101780.81
2019-03-19T13:47:52.198Z,101785.54
2019-03-19T13:50:21.889Z,101783.38
2019-03-19T13:52:50.875Z,101786.23
2019-03-19T13:55:20.383Z,101789.66
2019-03-19T13:57:48.958Z,101791.25
2019-03-19T14:00:18.394Z,101780.95
2019-03-19T14:02:46.971Z,101788.72
2019-03-19T14:05:15.948Z,101786.36
2019-03-19T14:07:44.630Z,101777.05
2019-03-19T14:10:14.803Z,101779.25
2019-03-19T14:12:43.381Z,101786.17
2019-03-19T14:15:25.357Z,101782.48
2019-03-19T14:17:53.926Z,101780.34
2019-03-19T14:20:22.513Z,101782.95
2019-03-19T14:22:51.199Z,101777.78
2019-03-19T14:25:19.843Z,101785.78
2019-03-19T14:27:48.466Z,101790.38
2019-03-19T14:30:21.365Z,101792.59
2019-03-19T14:32:49.963Z,101799.02
2019-03-19T14:35:18.649Z,101792.45
2019-03-19T14:37:47.289Z,101788.25
2019-03-19T14:40:23.501Z,101780.59
2019-03-19T14:42:52.204Z,101789.17
2019-03-19T14:45:20.778Z,101793.09
2019-03-19T14:47:49.385Z,101796.37
2019-03-19T14:50:25.141Z,101799.27
2019-03-19T14:52:53.932Z,101795.14
2019-03-19T14:55:22.776Z,101793.09
2019-03-19T14:57:51.367Z,101795.48
2019-03-19T15:00:21.148Z,101802.41
2019-03-19T15:02:50.072Z,101800.33
2019-03-19T15:05:18.648Z,101803.14
2019-03-19T15:07:47.231Z,101797.58
2019-03-19T15:10:23.764Z,101808.37
2019-03-19T15:12:52.406Z,101805.99
2019-03-19T15:15:21.779Z,101807.05
2019-03-19T15:17:50.408Z,101794.13
2019-03-19T15:20:23.399Z,101800.56
2019-03-19T15:22:51.987Z,101801.16
2019-03-19T15:25:20.585Z,101808.81
2019-03-19T15:27:49.162Z,101803.63
2019-03-19T15:30:22.089Z,101800.59
2019-03-19T15:32:50.743Z,101798.27
2019-03-19T15:35:19.307Z,101804.22
2019-03-19T15:37:48.016Z,101800.59
2019-03-19T15:40:20.217Z,101798.66
2019-03-19T15:42:48.937Z,101805.66
2019-03-19T15:45:26.054Z,101800.88
2019-03-19T15:47:54.825Z,101803.28
2019-03-19T15:50:23.407Z,101798.09
2019-03-19T15:52:52.078Z,101798.09
2019-03-19T15:55:20.660Z,101798.22
2019-03-19T15:57:49.302Z,101791.03
2019-03-19T16:00:21.473Z,101790.06
2019-03-19T16:02:50.137Z,101793.13
2019-03-19T16:05:18.775Z,101802.92
2019-03-19T16:07:47.424Z,101802.62
2019-03-19T16:10:19.505Z,101806.72
2019-03-19T16:12:49.139Z,101809.70
2019-03-19T16:15:22.560Z,101813.98
2019-03-19T16:17:51.259Z,101821.45
2019-03-19T16:20:20.838Z,101816.55
2019-03-19T16:22:49.442Z,101814.53
2019-03-19T16:25:18.081Z,101821.13
2019-03-19T16:27:46.793Z,101818.83
2019-03-19T16:30:16.601Z,101809.37
2019-03-19T16:32:45.269Z,101822.55
2019-03-19T16:35:13.966Z,101819.56
2019-03-19T16:37:42.566Z,101822.84
2019-03-19T16:40:20.965Z,101819.45
2019-03-19T16:42:49.538Z,101824.66
2019-03-19T16:45:18.783Z,101817.81
2019-03-19T16:47:47.416Z,101817.72
2019-03-19T16:50:17.935Z,101823.74
2019-03-19T16:52:46.510Z,101820.02
2019-03-19T16:55:16.146Z,101831.38
2019-03-19T16:57:44.749Z,101842.36
2019-03-19T17:00:21.440Z,101844.89
2019-03-19T17:02:50.010Z,101841.55
2019-03-19T17:05:18.607Z,101848.45
2019-03-19T17:07:47.388Z,101851.78
2019-03-19T17:10:17.691Z,101853.70
2019-03-19T17:12:46.420Z,101857.37
2019-03-19T17:15:17.931Z,101865.52
2019-03-19T17:17:46.511Z,101857.27
2019-03-19T17:20:16.078Z,101856.14
2019-03-19T17:22:44.676Z,101856.35
2019-03-19T17:25:20.876Z,101864.14
2019-03-19T17:27:49.452Z,101870.51
2019-03-19T17:30:28.870Z,101867.23
2019-03-19T17:32:57.438Z,101869.67
2019-03-19T17:35:26.432Z,101874.02
2019-03-19T17:37:55.007Z,101877.37
2019-03-19T17:40:23.633Z,101882.03
2019-03-19T17:42:52.288Z,101882.30
2019-03-19T17:45:20.858Z,101886.55
2019-03-19T17:47:49.437Z,101890.78
2019-03-19T17:50:22.059Z,101887.44
2019-03-19T17:52:52.396Z,101884.02
2019-03-19T17:55:21.044Z,101893.53
2019-03-19T17:57:49.618Z,101895.45
2019-03-19T18:00:27.310Z,101897.38
2019-03-19T18:02:55.883Z,101901.02
2019-03-19T18:05:24.486Z,101907.38
2019-03-19T18:07:53.061Z,101903.89
2019-03-19T18:10:21.865Z,101902.99
2019-03-19T18:12:50.644Z,101906.03
2019-03-19T18:15:19.819Z,101913.05
2019-03-19T18:17:48.590Z,101915.14
2019-03-19T18:20:17.980Z,101919.39
2019-03-19T18:22:46.788Z,101911.80
2019-03-19T18:25:16.485Z,101914.72
2019-03-19T18:27:45.063Z,101916.75
2019-03-19T18:30:18.696Z,101924.03
2019-03-19T18:32:46.565Z,101925.09
2019-03-19T18:35:15.359Z,101929.08
2019-03-19T18:37:44.149Z,101929.08
2019-03-19T18:40:17.444Z,101930.92
2019-03-19T18:42:46.068Z,101927.48
2019-03-19T18:45:19.076Z,101929.84
2019-03-19T18:47:47.732Z,101933.92
2019-03-19T18:50:22.873Z,101932.72
2019-03-19T18:52:51.461Z,101932.81
2019-03-19T18:55:20.058Z,101931.19
2019-03-19T18:57:48.645Z,101932.19
2019-03-19T19:00:24.031Z,101942.49
2019-03-19T19:02:52.715Z,101941.77
2019-03-19T19:05:22.261Z,101942.77
2019-03-19T19:07:50.924Z,101947.28
2019-03-19T19:10:21.390Z,101951.31
2019-03-19T19:12:50.437Z,101954.95
2019-03-19T19:15:20.951Z,101957.33
2019-03-19T19:17:49.665Z,101963.20
2019-03-19T19:20:18.929Z,101963.73
2019-03-19T19:22:47.572Z,101972.22
2019-03-19T19:25:17.476Z,101978.48
2019-03-19T19:27:46.276Z,101976.80
2019-03-19T19:30:21.218Z,101982.17
2019-03-19T19:33:01.026Z,101981.36
2019-03-19T19:35:20.985Z,101984.97
2019-03-19T19:37:50.552Z,101987.19
2019-03-19T19:40:20.135Z,101988.96
2019-03-19T19:42:49.281Z,101996.09
2019-03-19T19:45:19.139Z,101999.20
2019-03-19T19:47:48.279Z,101995.28
2019-03-19T19:50:20.681Z,102004.57
2019-03-19T19:52:49.352Z,102003.30
2019-03-19T19:55:18.187Z,102005.53
2019-03-19T19:57:47.326Z,102014.80
2019-03-19T20:00:18.149Z,102009.98
2019-03-19T20:02:46.865Z,102017.88
2019-03-19T20:05:15.776Z,102018.19
2019-03-19T20:07:44.489Z,102022.51
2019-03-19T20:10:24.405Z,102025.45
2019-03-19T20:12:53.064Z,102024.41
2019-03-19T20:15:21.745Z,102025.65
2019-03-19T20:17:50.504Z,102024.24
2019-03-19T20:20:30.550Z,102031.62
2019-03-19T20:22:59.429Z,102037.35
2019-03-19T20:25:28.050Z,102028.44
2019-03-19T20:27:56.635Z,102035.89
2019-03-19T20:30:26.415Z,102039.78
2019-03-19T20:32:55.018Z,102043.67
2019-03-19T20:35:23.693Z,102045.84
2019-03-19T20:37:52.479Z,102038.20
2019-03-19T20:40:21.266Z,102039.02
2019-03-19T20:42:49.900Z,102037.16
2019-03-19T20:45:21.023Z,102037.95
2019-03-19T20:47:49.593Z,102038.31
2019-03-19T20:50:21.131Z,102036.91
2019-03-19T20:52:49.827Z,102038.59
2019-03-19T20:55:18.407Z,102042.06
2019-03-19T20:57:46.990Z,102049.14
2019-03-19T21:00:17.609Z,102051.79
2019-03-19T21:02:46.204Z,102053.56
2019-03-19T21:05:14.853Z,102055.85
2019-03-19T21:07:43.470Z,102059.47
2019-03-19T21:10:20.302Z,102067.42
2019-03-19T21:12:48.996Z,102071.85
2019-03-19T21:15:18.886Z,102077.55
2019-03-19T21:17:48.267Z,102074.33
2019-03-19T21:20:16.896Z,102076.45
2019-03-19T21:22:45.523Z,102080.77
2019-03-19T21:25:14.107Z,102089.09
2019-03-19T21:27:42.692Z,102094.76
2019-03-19T21:30:23.953Z,102092.11
2019-03-19T21:32:52.617Z,102089.93
2019-03-19T21:35:22.433Z,102084.74
2019-03-19T21:37:51.225Z,102082.27
2019-03-19T21:40:20.021Z,102093.48
2019-03-19T21:42:48.729Z,102092.39
2019-03-19T21:45:21.342Z,102088.66
2019-03-19T21:47:49.944Z,102090.66
2019-03-19T21:50:25.606Z,102088.67
2019-03-19T21:52:54.187Z,102080.56
2019-03-19T21:55:22.811Z,102080.34
2019-03-19T21:57:51.340Z,102069.11
2019-03-19T22:00:24.773Z,102067.12
2019-03-19T22:02:53.373Z,102066.00
2019-03-19T22:05:21.956Z,102071.95
2019-03-19T22:07:50.634Z,102069.89
2019-03-19T22:10:23.456Z,102067.87
2019-03-19T22:12:52.036Z,102070.66
2019-03-19T22:15:27.787Z,102073.51
2019-03-19T22:17:56.438Z,102072.75
2019-03-19T22:20:25.024Z,102081.66
2019-03-19T22:22:53.648Z,102076.93
2019-03-19T22:25:22.232Z,102079.22
2019-03-19T22:27:50.833Z,102086.83
2019-03-19T22:30:22.606Z,102090.87
2019-03-19T22:32:51.210Z,102093.14
2019-03-19T22:35:19.832Z,102088.84
2019-03-19T22:37:48.433Z,102089.78
2019-03-19T22:40:17.719Z,102082.30
2019-03-19T22:42:46.530Z,102085.39
2019-03-19T22:45:17.074Z,102096.86
2019-03-19T22:47:45.677Z,102097.36
2019-03-19T22:50:15.798Z,102093.45
2019-03-19T22:52:44.427Z,102099.19
2019-03-19T22:55:13.902Z,102097.47
2019-03-19T22:57:42.476Z,102096.15
2019-03-19T23:00:37.533Z,102099.29
2019-03-19T23:03:06.574Z,102101.50
2019-03-19T23:05:35.321Z,102103.38
2019-03-19T23:08:04.303Z,102110.48
2019-03-19T23:10:32.971Z,102105.26
2019-03-19T23:13:01.553Z,102096.46
2019-03-19T23:15:30.228Z,102098.72
2019-03-19T23:17:58.990Z,102093.48
2019-03-19T23:20:28.137Z,102096.62
2019-03-19T23:22:56.730Z,102088.69
2019-03-19T23:25:25.307Z,102079.83
2019-03-19T23:27:53.908Z,102082.46
2019-03-19T23:30:23.684Z,102082.40
2019-03-19T23:32:52.288Z,102090.66
2019-03-19T23:35:20.868Z,102087.47
2019-03-19T23:37:49.483Z,102088.71
2019-03-19T23:40:19.354Z,102096.96
2019-03-19T23:42:47.937Z,102092.50
2019-03-19T23:45:16.615Z,102105.30
2019-03-19T23:47:45.265Z,102107.06
2019-03-19T23:50:17.723Z,102098.73
2019-03-19T23:52:46.371Z,102095.20
2019-03-19T23:55:15.041Z,102093.89
2019-03-19T23:57:43.681Z,102097.85
